Long Island Mac Arthur Airport
KISP : now visible

Airfield :











YOU CAN JOIN US ON...

 
LOGIN :

Register | Disclaimer

   EN    FR    IT 

 









Legend :    VFR   Marginal VFR   IFR   Intensive IFR   Very Intensive IFR
Visi :
Ceiling :
>= 8 km
>= 3000ft
5 to 8 km
1000 to 3000 ft
1500m to 5 km
500 to 1000 ft
800 to 1500m
200 to 500 ft
< 800m
< 200 ft
Symbols :   Thunderstorms  Fog  Heavy snow  Heavy precipitations  Wind > 20 kt






- Airport Elevation : 99 ft
- IATA code : ISP


KISP - Long Island Mac Arthur

CURRENT METAR :
  • 260356Z 28008KT 10SM BKN010 07/06 A2976 RMK AO2 SLP076 T00720061

EXPIRED METARs :
  • 260256Z 26010KT 10SM OVC008 08/07 A2974 RMK AO2 SLP072 T00780072 53003
  • 260156Z 25013G18KT 10SM OVC008 08/08 A2974 RMK AO2 SLP071 T00830083

TAF KISP
Valid from the 26 at 05:00 until the 27 at 00:00 UTC


260430Z 2605/2624 28008KT P6SM BKN010
FM260600 27009KT P6SM SCT015
FM261200 27010KT P6SM BKN100
FM261800 27009G16KT P6SM SCT050
FM262300 26011KT P6SM SCT120 SCT250



MET'MAP, your aeronautical weather chart ! - Copyright ORBIFLY December 2007 - Disclaimer

ORBIFLY MET'MAP TEAM :

Programming & Development : Alexandra Zaïnal
Concept & original design : Baudouin d'Aumeries
Assistance for programming : Marc-Olivier Méhu
Technical & hardware support : Manuel Goepfert

Contact : metmap@orbifly.com




SOURCES & CREDITS :

   NOAA       Earth
Advisory